Willard, New Mexico
Current Conditions -  °F | °C
As of 10:35 PM on Monday 26 Jan 2015 (Local Time) from K0E0 Reporting Station
Clear Clear  
Wind Chill: 24°   Ceiling: Unl
Heat Index: 29°   Visibility: 10mi
Dew Point: 26°   Wind: 5mph
Humidity: 88%   Direction: 20°NNE
Pressure: 30.38"   Gusts: NA
Location:  34.6°N, 106.03°W
Report Text: K0E0 270535Z AUTO 02004KT 10SM CLR M02/M03 A3038 RMK AO2 T10171035
Loading
Personal Weather Stations






























Interactive Weather Map New forecast layout! Learn more

10-Day Weather Forecast

Advertisements
Track Severe Weather on mobile